createdAt,value
2017-08-25T00:02:19.239Z,67.40
2017-08-25T00:04:46.743Z,67.30
2017-08-25T00:07:14.635Z,67.20
2017-08-25T00:09:42.168Z,67.30
2017-08-25T00:12:09.673Z,67.50
2017-08-25T00:14:37.191Z,67.60
2017-08-25T00:17:04.691Z,67.10
2017-08-25T00:19:33.736Z,66.80
2017-08-25T00:22:01.231Z,66.80
2017-08-25T00:24:28.759Z,66.80
2017-08-25T00:26:56.274Z,67.10
2017-08-25T00:29:24.936Z,67.50
2017-08-25T00:31:52.437Z,67.60
2017-08-25T00:34:20.331Z,67.70
2017-08-25T00:36:47.857Z,67.70
2017-08-25T00:39:15.355Z,67.70
2017-08-25T00:41:42.876Z,67.60
2017-08-25T00:44:10.374Z,67.60
2017-08-25T00:46:37.887Z,67.50
2017-08-25T00:49:06.148Z,67.30
2017-08-25T00:51:33.679Z,67.10
2017-08-25T00:54:01.955Z,67.70
2017-08-25T00:56:29.479Z,67.30
2017-08-25T00:58:56.981Z,67.00
2017-08-25T01:01:26.011Z,66.90
2017-08-25T01:03:53.507Z,66.80
2017-08-25T01:06:22.179Z,66.60
2017-08-25T01:08:50.083Z,66.50
2017-08-25T01:11:18.716Z,66.50
2017-08-25T01:13:46.231Z,66.50
2017-08-25T01:16:13.727Z,66.50
2017-08-25T01:18:41.655Z,66.40
2017-08-25T01:21:09.151Z,66.40
2017-08-25T01:23:36.667Z,66.40
2017-08-25T01:26:04.167Z,66.50
2017-08-25T01:28:32.451Z,67.00
2017-08-25T01:30:59.955Z,66.20
2017-08-25T01:33:27.880Z,66.00
2017-08-25T01:35:56.139Z,66.30
2017-08-25T01:38:24.051Z,66.30
2017-08-25T01:40:51.568Z,66.30
2017-08-25T01:43:19.066Z,66.70
2017-08-25T01:45:46.603Z,66.80
2017-08-25T01:48:14.107Z,67.10
2017-08-25T01:50:42.775Z,66.70
2017-08-25T01:53:10.271Z,66.90
2017-08-25T01:55:37.787Z,67.10
2017-08-25T01:58:05.287Z,67.30
2017-08-25T02:00:32.803Z,67.20
2017-08-25T02:03:01.079Z,67.10
2017-08-25T02:05:29.732Z,66.70
2017-08-25T02:07:57.280Z,66.60
2017-08-25T02:10:25.939Z,66.60
2017-08-25T02:12:54.207Z,66.70
2017-08-25T02:15:22.487Z,66.80
2017-08-25T02:17:50.011Z,66.50
2017-08-25T02:20:17.506Z,67.00
2017-08-25T02:22:45.042Z,67.20
2017-08-25T02:25:12.550Z,67.60
2017-08-25T02:31:01.479Z,67.70
2017-08-25T02:33:28.990Z,67.80
2017-08-25T02:35:56.491Z,67.70
2017-08-25T02:38:24.011Z,67.70
2017-08-25T02:40:51.920Z,68.00
2017-08-25T02:43:20.198Z,68.00
2017-08-25T02:45:48.094Z,67.70
2017-08-25T02:48:15.710Z,67.80
2017-08-25T02:50:44.343Z,67.60
2017-08-25T02:53:11.863Z,67.40
2017-08-25T02:55:39.355Z,67.40
2017-08-25T02:58:07.059Z,67.40
2017-08-25T03:03:04.715Z,66.90
2017-08-25T03:05:33.363Z,66.70
2017-08-25T03:08:00.891Z,66.90
2017-08-25T03:10:28.398Z,66.90
2017-08-25T03:12:55.902Z,67.20
2017-08-25T03:15:24.922Z,67.50
2017-08-25T03:17:52.410Z,67.60
2017-08-25T03:20:20.319Z,67.30
2017-08-25T03:22:47.815Z,67.30
2017-08-25T03:25:15.335Z,67.30
2017-08-25T03:27:43.600Z,67.30
2017-08-25T03:30:11.127Z,67.40
2017-08-25T03:32:38.788Z,67.60
2017-08-25T03:35:07.075Z,67.50
2017-08-25T03:37:34.965Z,67.40
2017-08-25T03:40:02.463Z,67.40
2017-08-25T03:42:30.050Z,67.40
2017-08-25T03:44:58.331Z,67.50
2017-08-25T03:47:25.954Z,67.30
2017-08-25T03:49:53.447Z,67.40
2017-08-25T03:52:20.963Z,67.50
2017-08-25T03:54:48.462Z,67.50
2017-08-25T03:57:15.974Z,67.40
2017-08-25T03:59:44.615Z,67.30
2017-08-25T04:02:12.931Z,67.20
2017-08-25T04:04:40.820Z,67.70
2017-08-25T04:07:08.344Z,68.20
2017-08-25T04:09:36.975Z,68.50
2017-08-25T04:12:05.615Z,68.60
2017-08-25T04:14:33.140Z,68.80
2017-08-25T04:17:01.147Z,68.60
2017-08-25T04:19:29.436Z,68.40
2017-08-25T04:21:56.940Z,68.50
2017-08-25T04:26:53.337Z,68.40
2017-08-25T04:29:20.850Z,68.30
2017-08-25T04:31:48.351Z,68.20
2017-08-25T04:34:16.632Z,68.10
2017-08-25T04:36:45.299Z,67.90
2017-08-25T04:39:12.803Z,68.20
2017-08-25T04:41:40.323Z,68.30
2017-08-25T04:46:36.706Z,68.30
2017-08-25T04:49:04.202Z,68.30
2017-08-25T04:51:31.732Z,68.20
2017-08-25T04:53:59.222Z,68.00
2017-08-25T04:56:27.524Z,68.00
2017-08-25T04:58:55.032Z,68.60
2017-08-25T05:01:22.555Z,69.00
2017-08-25T05:03:50.048Z,69.30
2017-08-25T05:06:17.595Z,69.30
2017-08-25T05:08:45.087Z,69.60
2017-08-25T05:11:12.593Z,69.80
2017-08-25T05:13:40.511Z,69.60
2017-08-25T05:16:08.005Z,69.60
2017-08-25T05:18:35.703Z,70.00
2017-08-25T05:21:03.602Z,69.90
2017-08-25T05:23:31.883Z,70.00
2017-08-25T05:26:00.155Z,70.00
2017-08-25T05:28:27.688Z,70.20
2017-08-25T05:30:55.187Z,70.10
2017-08-25T05:33:23.115Z,69.80
2017-08-25T05:35:50.615Z,69.80
2017-08-25T05:38:18.135Z,70.10
2017-08-25T05:40:46.028Z,70.00
2017-08-25T05:43:13.523Z,70.10
2017-08-25T05:45:41.039Z,70.40
2017-08-25T05:48:08.939Z,70.50
2017-08-25T05:50:36.467Z,70.40
2017-08-25T05:53:03.961Z,70.70
2017-08-25T05:55:31.482Z,70.90
2017-08-25T05:57:58.978Z,71.00
2017-08-25T06:00:26.491Z,71.10
2017-08-25T06:02:53.983Z,71.60
2017-08-25T06:05:21.499Z,71.30
2017-08-25T06:07:48.995Z,71.40
2017-08-25T06:10:16.534Z,72.60
2017-08-25T06:12:44.067Z,73.00
2017-08-25T06:15:11.968Z,73.40
2017-08-25T06:17:39.875Z,73.70
2017-08-25T06:20:08.136Z,73.70
2017-08-25T06:22:35.746Z,73.10
2017-08-25T06:25:03.305Z,72.60
2017-08-25T06:27:30.830Z,72.60
2017-08-25T06:29:59.247Z,72.20
2017-08-25T06:32:26.767Z,72.10
2017-08-25T06:34:55.159Z,72.20
2017-08-25T06:37:23.458Z,71.00
2017-08-25T06:39:51.903Z,71.30
2017-08-25T06:42:19.567Z,71.30
2017-08-25T06:44:47.843Z,70.60
2017-08-25T06:47:15.499Z,70.30
2017-08-25T06:49:43.406Z,70.50
2017-08-25T06:52:11.019Z,70.40
2017-08-25T06:54:38.689Z,70.60
2017-08-25T06:57:06.587Z,70.50
2017-08-25T06:59:35.631Z,70.70
2017-08-25T07:02:03.527Z,70.60
2017-08-25T07:04:31.173Z,70.60
2017-08-25T07:06:59.223Z,70.10
2017-08-25T07:09:27.151Z,70.10
2017-08-25T07:11:55.051Z,69.60
2017-08-25T07:14:22.611Z,70.40
2017-08-25T07:19:19.170Z,70.00
2017-08-25T07:21:46.824Z,70.50
2017-08-25T07:24:14.331Z,69.70
2017-08-25T07:26:41.846Z,69.20
2017-08-25T07:29:09.343Z,69.00
2017-08-25T07:31:37.655Z,69.20
2017-08-25T07:34:05.314Z,69.00
2017-08-25T07:36:32.832Z,68.70
2017-08-25T07:39:00.839Z,69.20
2017-08-25T07:41:28.504Z,69.30
2017-08-25T07:43:56.771Z,68.70
2017-08-25T07:46:25.054Z,68.60
2017-08-25T07:48:54.142Z,69.60
2017-08-25T07:51:21.642Z,68.50
2017-08-25T07:53:49.550Z,68.00
2017-08-25T07:56:17.047Z,67.60
2017-08-25T07:58:44.573Z,67.50
2017-08-25T08:03:42.078Z,67.60
2017-08-25T08:06:09.598Z,67.00
2017-08-25T08:08:37.249Z,67.10
2017-08-25T08:11:04.950Z,66.40
2017-08-25T08:13:32.458Z,66.60
2017-08-25T08:16:00.431Z,66.00
2017-08-25T08:18:28.499Z,65.50
2017-08-25T08:20:56.019Z,65.20
2017-08-25T08:23:23.518Z,65.80
2017-08-25T08:25:51.468Z,65.30
2017-08-25T08:28:19.139Z,65.20
2017-08-25T08:30:46.792Z,64.90
2017-08-25T08:33:14.451Z,64.30
2017-08-25T08:35:42.115Z,64.00
2017-08-25T08:38:09.627Z,64.00
2017-08-25T08:40:37.166Z,63.60
2017-08-25T08:43:04.666Z,63.10
2017-08-25T08:45:32.187Z,62.70
2017-08-25T08:47:59.682Z,59.80
2017-08-25T08:50:27.243Z,61.20
2017-08-25T08:52:54.739Z,61.30
2017-08-25T08:55:22.382Z,60.60
2017-08-25T08:57:49.917Z,60.20
2017-08-25T09:00:17.415Z,59.70
2017-08-25T09:02:44.931Z,60.00
2017-08-25T09:05:19.155Z,58.40
2017-08-25T09:07:46.675Z,58.80
2017-08-25T09:10:14.946Z,58.60
2017-08-25T09:12:43.342Z,58.10
2017-08-25T09:15:11.611Z,56.80
2017-08-25T09:17:39.280Z,56.90
2017-08-25T09:20:06.933Z,56.40
2017-08-25T09:22:34.851Z,56.20
2017-08-25T09:25:02.443Z,56.20
2017-08-25T09:27:29.987Z,56.60
2017-08-25T09:29:57.610Z,56.30
2017-08-25T09:32:25.511Z,55.40
2017-08-25T09:34:53.513Z,55.20
2017-08-25T09:37:21.161Z,55.70
2017-08-25T09:39:48.807Z,55.90
2017-08-25T09:42:16.307Z,55.60
2017-08-25T09:44:43.819Z,54.80
2017-08-25T09:47:11.331Z,54.30
2017-08-25T09:49:39.049Z,53.10
2017-08-25T09:52:06.704Z,54.60
2017-08-25T09:54:34.232Z,54.10
2017-08-25T09:57:01.731Z,53.20
2017-08-25T09:59:30.036Z,52.30
2017-08-25T10:01:57.947Z,53.00
2017-08-25T10:04:25.471Z,52.70
2017-08-25T10:06:53.378Z,52.20
2017-08-25T10:09:20.904Z,52.40
2017-08-25T10:11:48.583Z,51.80
2017-08-25T10:14:16.079Z,50.80
2017-08-25T10:16:44.115Z,50.60
2017-08-25T10:19:11.755Z,49.10
2017-08-25T10:21:39.827Z,50.30
2017-08-25T10:24:07.483Z,50.00
2017-08-25T10:26:35.155Z,50.00
2017-08-25T10:29:02.666Z,49.20
2017-08-25T10:31:30.946Z,48.60
2017-08-25T10:33:58.868Z,47.40
2017-08-25T10:36:38.482Z,47.40
2017-08-25T10:39:17.721Z,47.50
2017-08-25T10:41:57.099Z,47.50
2017-08-25T10:44:36.299Z,47.50
2017-08-25T10:47:04.603Z,46.80
2017-08-25T10:49:32.875Z,47.50
2017-08-25T10:52:00.447Z,49.30
2017-08-25T10:54:27.999Z,50.00
2017-08-25T10:56:55.928Z,51.20
2017-08-25T10:59:23.427Z,52.10
2017-08-25T11:01:52.427Z,52.40
2017-08-25T11:04:19.975Z,53.10
2017-08-25T11:06:47.464Z,54.20
2017-08-25T11:09:14.987Z,54.50
2017-08-25T11:11:42.483Z,55.10
2017-08-25T11:14:10.015Z,54.20
2017-08-25T11:21:35.327Z,56.90
2017-08-25T11:24:02.918Z,55.30
2017-08-25T11:26:31.591Z,52.90
2017-08-25T11:28:59.120Z,53.30
2017-08-25T11:31:27.027Z,55.10
2017-08-25T11:33:57.083Z,55.50
2017-08-25T11:36:24.680Z,55.60
2017-08-25T11:38:52.334Z,55.80
2017-08-25T11:41:19.849Z,55.80
2017-08-25T11:43:47.739Z,55.60
2017-08-25T11:46:16.138Z,55.70
2017-08-25T11:48:43.803Z,54.30
2017-08-25T11:51:11.456Z,56.10
2017-08-25T11:53:39.360Z,56.30
2017-08-25T11:56:07.766Z,56.40
2017-08-25T12:03:33.219Z,56.00
2017-08-25T12:06:00.757Z,54.20
2017-08-25T12:08:28.339Z,54.80
2017-08-25T12:10:55.835Z,55.20
2017-08-25T12:13:23.351Z,55.60
2017-08-25T12:15:50.919Z,56.80
2017-08-25T12:18:18.447Z,55.60
2017-08-25T12:20:46.032Z,55.10
2017-08-25T12:23:13.691Z,54.40
2017-08-25T12:25:41.196Z,55.00
2017-08-25T12:28:08.787Z,54.40
2017-08-25T12:30:36.303Z,55.20
2017-08-25T12:33:03.827Z,55.90
2017-08-25T12:35:31.779Z,56.40
2017-08-25T12:37:59.300Z,55.10
2017-08-25T12:40:27.564Z,53.30
2017-08-25T12:42:55.175Z,55.60
2017-08-25T12:45:22.671Z,55.80
2017-08-25T12:47:50.688Z,55.40
2017-08-25T12:50:18.212Z,55.70
2017-08-25T12:52:46.840Z,56.00
2017-08-25T12:55:14.461Z,53.70
2017-08-25T12:57:43.096Z,53.30
2017-08-25T13:00:10.827Z,54.90
2017-08-25T13:02:38.472Z,55.40
2017-08-25T13:05:06.318Z,52.30
2017-08-25T13:07:33.995Z,54.40
2017-08-25T13:10:01.573Z,53.50
2017-08-25T13:12:30.207Z,55.00
2017-08-25T13:14:57.735Z,55.10
2017-08-25T13:17:26.062Z,54.10
2017-08-25T13:19:53.715Z,55.00
2017-08-25T13:22:21.622Z,53.10
2017-08-25T13:24:49.894Z,54.70
2017-08-25T13:27:18.200Z,54.90
2017-08-25T13:29:45.791Z,54.70
2017-08-25T13:32:13.732Z,55.10
2017-08-25T13:34:41.227Z,54.90
2017-08-25T13:37:10.255Z,55.30
2017-08-25T13:39:37.753Z,53.50
2017-08-25T13:42:05.719Z,52.50
2017-08-25T13:44:33.607Z,54.70
2017-08-25T13:47:01.130Z,54.20
2017-08-25T13:49:28.624Z,52.50
2017-08-25T13:51:56.179Z,51.40
2017-08-25T13:54:23.679Z,52.00
2017-08-25T13:59:20.113Z,53.00
2017-08-25T14:01:48.003Z,53.40
2017-08-25T14:04:15.666Z,54.40
2017-08-25T14:06:43.340Z,52.00
2017-08-25T14:09:10.986Z,52.80
2017-08-25T14:11:39.687Z,52.80
2017-08-25T14:14:08.356Z,51.00
2017-08-25T14:16:37.448Z,50.70
2017-08-25T14:19:05.106Z,50.70
2017-08-25T14:24:01.665Z,48.90
2017-08-25T14:26:30.295Z,49.60
2017-08-25T14:28:58.710Z,48.90
2017-08-25T14:31:26.966Z,49.80
2017-08-25T14:33:54.503Z,50.30
2017-08-25T14:36:22.021Z,51.70
2017-08-25T14:38:49.647Z,51.40
2017-08-25T14:41:17.723Z,51.90
2017-08-25T14:43:45.219Z,52.80
2017-08-25T14:46:13.663Z,53.30
2017-08-25T14:48:41.320Z,52.40
2017-08-25T14:51:09.608Z,52.30
2017-08-25T14:53:37.259Z,53.00
2017-08-25T14:56:04.900Z,53.00
2017-08-25T14:58:32.409Z,51.30
2017-08-25T15:01:00.015Z,51.60
2017-08-25T15:03:27.515Z,52.30
2017-08-25T15:05:55.142Z,53.00
2017-08-25T15:08:22.831Z,53.10
2017-08-25T15:10:50.446Z,53.40
2017-08-25T15:13:18.739Z,53.50
2017-08-25T15:15:46.235Z,53.50
2017-08-25T15:18:13.751Z,53.10
2017-08-25T15:20:41.278Z,53.70
2017-08-25T15:23:08.943Z,54.00
2017-08-25T15:25:36.611Z,54.00
2017-08-25T15:28:04.263Z,53.90
2017-08-25T15:30:31.918Z,53.70
2017-08-25T15:32:59.581Z,53.80
2017-08-25T15:35:27.246Z,53.80
2017-08-25T15:37:54.904Z,53.70
2017-08-25T15:40:22.550Z,53.70
2017-08-25T15:42:50.031Z,53.00
2017-08-25T15:45:18.694Z,53.20
2017-08-25T15:47:46.208Z,51.30
2017-08-25T15:50:13.727Z,52.20
2017-08-25T15:52:41.231Z,52.80
2017-08-25T15:55:08.754Z,52.60
2017-08-25T15:57:36.476Z,52.20
2017-08-25T16:00:04.028Z,52.30
2017-08-25T16:02:31.535Z,52.20
2017-08-25T16:04:59.053Z,52.40
2017-08-25T16:07:26.609Z,52.60
2017-08-25T16:09:54.135Z,52.80
2017-08-25T16:12:22.786Z,52.30
2017-08-25T16:14:50.411Z,52.00
2017-08-25T16:17:17.908Z,52.20
2017-08-25T16:19:45.404Z,53.00
2017-08-25T16:22:12.926Z,52.80
2017-08-25T16:24:40.429Z,53.00
2017-08-25T16:27:07.955Z,52.30
2017-08-25T16:29:36.220Z,51.90
2017-08-25T16:32:04.131Z,52.40
2017-08-25T16:34:31.642Z,52.20
2017-08-25T16:36:59.931Z,52.40
2017-08-25T16:39:27.419Z,52.80
2017-08-25T16:41:56.080Z,53.20
2017-08-25T16:44:23.591Z,53.80
2017-08-25T16:46:51.115Z,54.40
2017-08-25T16:49:18.612Z,53.60
2017-08-25T16:51:46.143Z,53.00
2017-08-25T16:54:13.642Z,52.80
2017-08-25T16:56:41.155Z,53.40
2017-08-25T16:59:08.731Z,54.40
2017-08-25T17:01:37.018Z,53.10
2017-08-25T17:04:05.675Z,52.80
2017-08-25T17:06:34.679Z,53.50
2017-08-25T17:09:02.199Z,54.40
2017-08-25T17:11:29.695Z,54.90
2017-08-25T17:13:58.343Z,55.40
2017-08-25T17:16:25.843Z,55.70
2017-08-25T17:18:54.136Z,56.10
2017-08-25T17:21:21.632Z,55.80
2017-08-25T17:23:49.150Z,56.60
2017-08-25T17:26:17.039Z,55.90
2017-08-25T17:28:44.579Z,56.20
2017-08-25T17:31:12.075Z,56.00
2017-08-25T17:33:39.571Z,56.50
2017-08-25T17:36:07.095Z,56.80
2017-08-25T17:41:04.234Z,55.40
2017-08-25T17:43:31.759Z,56.20
2017-08-25T17:45:59.667Z,56.80
2017-08-25T17:48:27.971Z,57.40
2017-08-25T17:50:55.899Z,57.80
2017-08-25T17:53:23.795Z,58.20
2017-08-25T17:55:52.079Z,58.30
2017-08-25T17:58:19.584Z,58.60
2017-08-25T18:00:48.607Z,58.90
2017-08-25T18:03:16.182Z,59.20
2017-08-25T18:05:43.711Z,59.50
2017-08-25T18:08:12.125Z,61.10
2017-08-25T18:10:39.872Z,59.90
2017-08-25T18:13:07.387Z,60.20
2017-08-25T18:15:36.018Z,60.30
2017-08-25T18:18:03.571Z,60.20
2017-08-25T18:20:31.254Z,60.70
2017-08-25T18:22:58.883Z,60.90
2017-08-25T18:25:26.547Z,61.20
2017-08-25T18:27:54.203Z,61.20
2017-08-25T18:30:21.863Z,61.00
2017-08-25T18:32:49.523Z,61.40
2017-08-25T18:35:17.192Z,61.70
2017-08-25T18:37:44.851Z,62.10
2017-08-25T18:40:12.355Z,62.20
2017-08-25T18:42:41.195Z,62.60
2017-08-25T18:45:08.811Z,62.70
2017-08-25T18:47:36.454Z,62.80
2017-08-25T18:50:04.158Z,63.20
2017-08-25T18:52:32.060Z,63.20
2017-08-25T18:54:59.585Z,64.00
2017-08-25T18:57:27.480Z,64.80
2017-08-25T18:59:55.011Z,65.00
2017-08-25T19:02:22.528Z,65.70
2017-08-25T19:04:50.065Z,65.90
2017-08-25T19:07:17.559Z,65.70
2017-08-25T19:09:45.670Z,65.60
2017-08-25T19:12:13.162Z,65.70
2017-08-25T19:14:41.162Z,65.50
2017-08-25T19:17:09.063Z,65.40
2017-08-25T19:19:36.607Z,65.60
2017-08-25T19:22:04.103Z,65.40
2017-08-25T19:24:31.792Z,65.30
2017-08-25T19:26:59.855Z,65.20
2017-08-25T19:29:27.359Z,65.20
2017-08-25T19:31:54.891Z,65.10
2017-08-25T19:34:22.411Z,65.00
2017-08-25T19:36:51.071Z,65.60
2017-08-25T19:39:18.573Z,66.10
2017-08-25T19:41:46.091Z,66.30
2017-08-25T19:44:14.735Z,66.40
2017-08-25T19:46:42.255Z,66.20
2017-08-25T19:49:09.747Z,66.20
2017-08-25T19:51:37.281Z,66.10
2017-08-25T19:54:04.776Z,65.90
2017-08-25T19:56:32.287Z,65.90
2017-08-25T19:58:59.795Z,65.70
2017-08-25T20:01:27.719Z,65.80
2017-08-25T20:03:55.995Z,65.60
2017-08-25T20:06:23.899Z,65.70
2017-08-25T20:08:51.415Z,65.60
2017-08-25T20:11:18.919Z,65.50
2017-08-25T20:13:46.470Z,65.30
2017-08-25T20:16:14.372Z,65.20
2017-08-25T20:18:41.899Z,65.10
2017-08-25T20:21:09.396Z,65.40
2017-08-25T20:23:36.923Z,65.80
2017-08-25T20:26:04.423Z,65.90
2017-08-25T20:28:31.939Z,66.10
2017-08-25T20:30:59.448Z,66.30
2017-08-25T20:33:26.970Z,66.50
2017-08-25T20:35:54.471Z,66.50
2017-08-25T20:38:21.999Z,66.00
2017-08-25T20:40:49.496Z,66.10
2017-08-25T20:43:16.996Z,66.00
2017-08-25T20:45:44.511Z,66.10
2017-08-25T20:48:12.007Z,66.20
2017-08-25T20:50:39.523Z,66.30
2017-08-25T20:53:07.803Z,67.40
2017-08-25T20:55:36.463Z,66.80
2017-08-25T20:58:05.102Z,66.70
2017-08-25T21:00:32.629Z,66.70
2017-08-25T21:03:00.142Z,66.40
2017-08-25T21:05:27.684Z,66.20
2017-08-25T21:07:55.179Z,66.10
2017-08-25T21:10:22.698Z,66.20
2017-08-25T21:12:50.198Z,66.10
2017-08-25T21:15:17.715Z,66.00
2017-08-25T21:17:45.243Z,65.90
2017-08-25T21:20:12.746Z,65.80
2017-08-25T21:22:40.266Z,65.70
2017-08-25T21:25:08.545Z,65.70
2017-08-25T21:27:36.845Z,65.70
2017-08-25T21:30:05.172Z,65.40
2017-08-25T21:32:33.471Z,65.10
2017-08-25T21:35:00.968Z,65.30
2017-08-25T21:37:28.487Z,65.30
2017-08-25T21:39:57.139Z,65.30
2017-08-25T21:42:24.671Z,65.30
2017-08-25T21:44:52.938Z,65.30
2017-08-25T21:47:20.444Z,65.50
2017-08-25T21:49:47.964Z,65.60
2017-08-25T21:52:15.458Z,65.60
2017-08-25T21:54:42.988Z,65.80
2017-08-25T21:57:10.499Z,65.80
2017-08-25T21:59:39.159Z,65.90
2017-08-25T22:02:07.435Z,65.90
2017-08-25T22:04:35.735Z,65.60
2017-08-25T22:07:03.995Z,65.70
2017-08-25T22:09:31.515Z,65.90
2017-08-25T22:11:59.031Z,65.90
2017-08-25T22:14:26.555Z,66.10
2017-08-25T22:16:54.835Z,66.10
2017-08-25T22:19:22.339Z,66.00
2017-08-25T22:21:50.989Z,66.00
2017-08-25T22:24:18.504Z,66.20
2017-08-25T22:26:47.158Z,66.30
2017-08-25T22:29:15.050Z,66.30
2017-08-25T22:31:42.655Z,66.30
2017-08-25T22:34:10.159Z,66.30
2017-08-25T22:36:37.678Z,66.50
2017-08-25T22:39:05.190Z,66.70
2017-08-25T22:41:32.714Z,66.80
2017-08-25T22:44:00.215Z,66.60
2017-08-25T22:46:28.135Z,66.30
2017-08-25T22:48:56.403Z,66.10
2017-08-25T22:51:23.908Z,66.50
2017-08-25T22:53:51.438Z,66.40
2017-08-25T22:56:18.939Z,66.60
2017-08-25T22:58:46.464Z,66.60
2017-08-25T23:01:15.106Z,66.50
2017-08-25T23:03:42.619Z,66.50
2017-08-25T23:06:10.883Z,67.30
2017-08-25T23:08:38.811Z,66.60
2017-08-25T23:11:06.307Z,66.80
2017-08-25T23:13:33.839Z,66.60
2017-08-25T23:16:01.731Z,66.60
2017-08-25T23:18:30.387Z,66.60
2017-08-25T23:20:58.275Z,66.60
2017-08-25T23:23:25.810Z,66.80
2017-08-25T23:25:54.443Z,66.70
2017-08-25T23:28:21.983Z,66.80
2017-08-25T23:30:49.483Z,67.00
2017-08-25T23:33:17.003Z,67.00
2017-08-25T23:35:44.535Z,67.10
2017-08-25T23:38:12.049Z,67.30
2017-08-25T23:40:39.575Z,67.20
2017-08-25T23:43:07.476Z,67.30
2017-08-25T23:45:35.003Z,67.40
2017-08-25T23:48:03.280Z,67.40
2017-08-25T23:50:30.802Z,67.60
2017-08-25T23:52:58.299Z,67.40
2017-08-25T23:55:25.818Z,67.40
2017-08-25T23:57:53.319Z,67.60
